createdAt,value
2018-06-12T00:05:14.767Z,31.80
2018-06-12T00:07:50.335Z,31.80
2018-06-12T00:10:26.465Z,32.20
2018-06-12T00:13:00.868Z,32.50
2018-06-12T00:15:35.387Z,32.90
2018-06-12T00:18:09.790Z,33.10
2018-06-12T00:20:44.233Z,33.50
2018-06-12T00:23:19.469Z,33.80
2018-06-12T00:25:54.420Z,34.40
2018-06-12T00:28:29.334Z,34.70
2018-06-12T00:31:03.723Z,34.60
2018-06-12T00:33:38.872Z,35.10
2018-06-12T00:36:13.538Z,35.10
2018-06-12T00:38:47.820Z,35.20
2018-06-12T00:41:22.252Z,35.60
2018-06-12T00:43:57.017Z,36.30
2018-06-12T00:46:31.400Z,36.00
2018-06-12T00:49:06.149Z,36.30
2018-06-12T00:51:40.933Z,37.20
2018-06-12T00:54:15.601Z,38.10
2018-06-12T00:57:04.768Z,37.40
2018-06-12T00:59:40.007Z,37.00
2018-06-12T01:02:15.246Z,36.10
2018-06-12T01:04:49.460Z,36.20
2018-06-12T01:07:23.782Z,36.90
2018-06-12T01:09:58.215Z,38.00
2018-06-12T01:12:34.144Z,37.60
2018-06-12T01:15:13.601Z,37.60
2018-06-12T01:17:48.198Z,38.30
2018-06-12T01:20:23.052Z,39.10
2018-06-12T01:22:57.766Z,40.10
2018-06-12T01:25:32.089Z,39.90
2018-06-12T01:28:06.337Z,40.30
2018-06-12T01:30:41.002Z,40.40
2018-06-12T01:33:15.352Z,41.30
2018-06-12T01:35:49.861Z,41.00
2018-06-12T01:38:24.616Z,41.20
2018-06-12T01:40:59.636Z,42.30
2018-06-12T01:43:34.208Z,43.00
2018-06-12T01:46:08.775Z,43.30
2018-06-12T01:48:44.062Z,43.80
2018-06-12T01:51:18.456Z,43.80
2018-06-12T01:53:52.864Z,44.50
2018-06-12T01:56:27.179Z,44.50
2018-06-12T01:59:01.501Z,45.40
2018-06-12T02:01:35.904Z,45.80
2018-06-12T02:04:10.189Z,46.30
2018-06-12T02:06:44.733Z,47.90
2018-06-12T02:11:53.398Z,47.90
2018-06-12T02:14:27.732Z,47.20
2018-06-12T02:17:02.123Z,47.90
2018-06-12T02:19:36.496Z,48.10
2018-06-12T02:22:10.866Z,48.50
2018-06-12T02:24:45.703Z,48.80
2018-06-12T02:27:20.615Z,47.90
2018-06-12T02:29:55.076Z,45.00
2018-06-12T02:32:29.426Z,44.30
2018-06-12T02:35:03.803Z,43.60
2018-06-12T02:37:40.712Z,42.20
2018-06-12T02:40:15.948Z,41.20
2018-06-12T02:42:50.391Z,39.60
2018-06-12T02:45:25.656Z,38.60
2018-06-12T02:48:01.485Z,36.70
2018-06-12T02:50:35.913Z,36.70
2018-06-12T02:55:49.118Z,35.00
2018-06-12T02:58:24.472Z,34.20
2018-06-12T03:00:58.893Z,34.10
2018-06-12T03:03:33.484Z,33.60
2018-06-12T03:06:07.869Z,33.40
2018-06-12T03:08:42.376Z,32.60
2018-06-12T03:11:16.664Z,32.80
2018-06-12T03:13:51.541Z,32.60
2018-06-12T03:16:26.021Z,32.80
2018-06-12T03:19:00.284Z,32.20
2018-06-12T03:21:35.714Z,32.50
2018-06-12T03:24:10.009Z,32.40
2018-06-12T03:26:44.360Z,31.50
2018-06-12T03:29:18.771Z,31.80
2018-06-12T03:31:53.167Z,30.10
2018-06-12T03:34:27.363Z,30.00
2018-06-12T03:37:01.806Z,29.80
2018-06-12T03:39:36.451Z,29.80
2018-06-12T03:42:11.754Z,30.00
2018-06-12T03:44:46.218Z,29.60
2018-06-12T03:47:20.520Z,29.20
2018-06-12T03:49:55.765Z,28.80
2018-06-12T03:52:30.362Z,28.40
2018-06-12T03:55:05.076Z,28.00
2018-06-12T03:57:40.527Z,27.60
2018-06-12T04:00:14.796Z,27.20
2018-06-12T04:02:49.116Z,27.30
2018-06-12T04:05:23.692Z,27.20
2018-06-12T04:07:57.871Z,27.30
2018-06-12T04:10:32.238Z,28.00
2018-06-12T04:13:07.800Z,28.00
2018-06-12T04:15:42.863Z,29.40
2018-06-12T04:18:17.056Z,29.20
2018-06-12T04:23:25.456Z,28.60
2018-06-12T04:25:59.721Z,27.80
2018-06-12T04:28:33.900Z,27.50
2018-06-12T04:31:08.116Z,26.40
2018-06-12T04:33:42.316Z,25.60
2018-06-12T04:36:16.651Z,26.40
2018-06-12T04:38:50.972Z,26.50
2018-06-12T04:41:25.412Z,25.40
2018-06-12T04:43:59.937Z,25.40
2018-06-12T04:46:34.219Z,25.20
2018-06-12T04:49:08.680Z,25.60
2018-06-12T04:51:42.967Z,25.80
2018-06-12T04:54:17.372Z,22.60
2018-06-12T04:56:51.793Z,22.80
2018-06-12T04:59:26.080Z,21.70
2018-06-12T05:02:00.264Z,21.40
2018-06-12T05:04:34.584Z,20.50
2018-06-12T05:07:08.905Z,20.70
2018-06-12T05:12:17.520Z,20.80
2018-06-12T05:14:52.404Z,19.20
2018-06-12T05:17:26.599Z,18.50
2018-06-12T05:20:02.890Z,18.40
2018-06-12T05:22:37.019Z,19.20
2018-06-12T05:25:14.060Z,19.70
2018-06-12T05:27:49.784Z,20.90
2018-06-12T05:30:24.002Z,20.90
2018-06-12T05:32:58.221Z,20.90
2018-06-12T05:35:33.026Z,20.90
2018-06-12T05:38:09.638Z,22.60
2018-06-12T05:40:45.808Z,24.40
2018-06-12T05:43:21.246Z,25.50
2018-06-12T05:45:55.885Z,25.60
2018-06-12T05:48:30.501Z,26.10
2018-06-12T05:51:11.324Z,25.30
2018-06-12T05:53:47.863Z,25.30
2018-06-12T05:56:24.213Z,24.70
2018-06-12T05:58:59.922Z,22.90
2018-06-12T06:01:34.506Z,22.70
2018-06-12T06:04:09.204Z,22.00
2018-06-12T06:06:43.932Z,20.40
2018-06-12T06:09:22.264Z,20.40
2018-06-12T06:11:57.271Z,20.20
2018-06-12T06:14:32.517Z,21.10
2018-06-12T06:17:10.468Z,22.20
2018-06-12T06:19:51.213Z,22.80
2018-06-12T06:22:31.435Z,23.20
2018-06-12T06:25:09.276Z,22.80
2018-06-12T06:27:45.536Z,22.90
2018-06-12T06:30:27.716Z,22.50
2018-06-12T06:33:03.974Z,21.30
2018-06-12T06:38:18.472Z,17.60
2018-06-12T06:40:56.587Z,15.40
2018-06-12T06:43:32.209Z,12.50
2018-06-12T06:46:09.307Z,12.10
2018-06-12T06:48:44.549Z,11.20
2018-06-12T06:51:22.472Z,9.90
2018-06-12T06:54:00.975Z,8.60
2018-06-12T06:56:37.037Z,7.20
2018-06-12T06:59:16.064Z,2.90
2018-06-12T07:01:52.734Z,2.30
2018-06-12T07:04:31.773Z,1.60
2018-06-12T07:07:06.336Z,2.90
2018-06-12T07:09:42.149Z,1.70
2018-06-12T07:12:17.238Z,1.00
2018-06-12T07:14:55.114Z,1.00
2018-06-12T07:17:29.904Z,1.00
2018-06-12T07:20:08.536Z,1.00
2018-06-12T07:22:58.540Z,1.00
2018-06-12T07:25:33.149Z,1.00
2018-06-12T07:28:09.102Z,1.00
2018-06-12T07:30:45.364Z,1.00
2018-06-12T07:33:20.908Z,1.00
2018-06-12T07:41:52.385Z,1.00
2018-06-12T07:44:29.671Z,1.00
2018-06-12T07:47:05.285Z,1.00
2018-06-12T07:49:45.686Z,1.00
2018-06-12T07:52:21.507Z,1.00
2018-06-12T07:57:54.964Z,1.00
2018-06-12T08:00:29.883Z,1.00
2018-06-12T08:03:17.705Z,1.00
2018-06-12T08:05:55.495Z,1.00
2018-06-12T08:08:36.209Z,1.00
2018-06-12T08:13:55.693Z,1.00
2018-06-12T08:16:36.658Z,1.00
2018-06-12T08:19:11.073Z,1.00
2018-06-12T08:21:45.904Z,1.00
2018-06-12T08:24:22.396Z,1.00
2018-06-12T08:26:57.496Z,1.00
2018-06-12T08:29:38.199Z,1.00
2018-06-12T08:32:13.846Z,1.00
2018-06-12T08:34:51.565Z,1.00
2018-06-12T08:37:30.863Z,1.00
2018-06-12T08:40:08.746Z,1.00
2018-06-12T08:42:46.659Z,1.00
2018-06-12T08:45:23.248Z,1.00
2018-06-12T08:47:59.569Z,1.00
2018-06-12T08:50:34.639Z,1.00
2018-06-12T08:53:10.479Z,1.00
2018-06-12T08:58:22.455Z,1.00
2018-06-12T09:01:01.528Z,1.00
2018-06-12T09:03:38.158Z,1.00
2018-06-12T09:06:15.760Z,1.00
2018-06-12T09:08:51.509Z,1.00
2018-06-12T09:11:28.146Z,1.00
2018-06-12T09:14:05.335Z,1.00
2018-06-12T09:16:40.884Z,1.00
2018-06-12T09:19:19.632Z,1.00
2018-06-12T09:21:58.698Z,1.00
2018-06-12T09:24:33.432Z,1.00
2018-06-12T09:27:08.537Z,1.00
2018-06-12T09:29:45.327Z,1.00
2018-06-12T09:32:23.531Z,1.00
2018-06-12T09:34:59.680Z,1.00
2018-06-12T09:37:35.108Z,1.00
2018-06-12T09:40:10.590Z,1.00
2018-06-12T09:42:45.626Z,1.00
2018-06-12T09:45:19.817Z,1.00
2018-06-12T09:47:54.931Z,1.00
2018-06-12T09:50:30.323Z,1.00
2018-06-12T09:53:09.126Z,1.00
2018-06-12T09:55:44.617Z,1.00
2018-06-12T09:58:19.425Z,1.00
2018-06-12T10:00:59.662Z,1.00
2018-06-12T10:03:33.957Z,1.00
2018-06-12T10:06:09.445Z,1.00
2018-06-12T10:08:44.010Z,1.00
2018-06-12T10:11:21.132Z,1.00
2018-06-12T10:13:56.256Z,1.00
2018-06-12T10:16:31.774Z,1.00
2018-06-12T10:19:06.257Z,1.00
2018-06-12T10:21:45.054Z,1.00
2018-06-12T10:24:20.449Z,1.00
2018-06-12T10:27:02.925Z,1.00
2018-06-12T10:29:38.428Z,1.00
2018-06-12T10:32:15.712Z,1.00
2018-06-12T10:34:50.155Z,1.00
2018-06-12T10:40:08.017Z,1.00
2018-06-12T10:42:42.217Z,1.00
2018-06-12T10:45:16.742Z,1.00
2018-06-12T10:47:51.405Z,1.00
2018-06-12T10:50:25.785Z,1.00
2018-06-12T10:53:00.466Z,1.00
2018-06-12T10:55:34.947Z,1.00
2018-06-12T10:58:09.149Z,1.00
2018-06-12T11:00:44.519Z,1.00
2018-06-12T11:03:20.872Z,1.00
2018-06-12T11:05:57.452Z,1.00
2018-06-12T11:08:35.404Z,1.00
2018-06-12T11:11:09.752Z,1.00
2018-06-12T11:13:45.490Z,1.00
2018-06-12T11:16:21.534Z,1.00
2018-06-12T11:18:56.184Z,1.00
2018-06-12T11:21:31.518Z,1.00
2018-06-12T11:24:05.996Z,1.00
2018-06-12T11:26:42.324Z,1.00
2018-06-12T11:29:17.908Z,1.00
2018-06-12T11:31:52.584Z,1.00
2018-06-12T11:34:28.793Z,1.00
2018-06-12T11:39:39.588Z,1.00
2018-06-12T11:42:15.453Z,1.00
2018-06-12T11:44:51.413Z,1.00
2018-06-12T11:47:26.444Z,1.00
2018-06-12T11:50:01.736Z,1.00
2018-06-12T11:52:37.945Z,1.00
2018-06-12T11:55:12.881Z,1.00
2018-06-12T11:57:49.496Z,1.00
2018-06-12T12:00:24.383Z,1.00
2018-06-12T12:02:59.669Z,1.00
2018-06-12T12:05:34.925Z,1.00
2018-06-12T12:08:09.123Z,1.00
2018-06-12T12:10:43.984Z,1.00
2018-06-12T12:13:18.104Z,1.00
2018-06-12T12:15:52.402Z,1.00
2018-06-12T12:18:26.948Z,1.00
2018-06-12T12:21:01.345Z,1.00
2018-06-12T12:23:35.738Z,1.00
2018-06-12T12:26:10.298Z,1.00
2018-06-12T12:28:44.837Z,1.00
2018-06-12T12:31:19.325Z,1.00
2018-06-12T12:33:54.005Z,1.00
2018-06-12T12:36:28.281Z,1.00
2018-06-12T12:39:04.895Z,1.00
2018-06-12T12:41:39.718Z,1.00
2018-06-12T12:44:23.715Z,1.00
2018-06-12T12:47:04.739Z,1.00
2018-06-12T12:49:40.600Z,1.00
2018-06-12T12:52:15.732Z,1.00
2018-06-12T12:54:52.356Z,1.00
2018-06-12T12:57:28.361Z,1.00
2018-06-12T13:00:02.583Z,1.00
2018-06-12T13:02:40.384Z,1.00
2018-06-12T13:05:15.902Z,1.00
2018-06-12T13:07:51.008Z,1.00
2018-06-12T13:10:26.504Z,1.00
2018-06-12T13:13:00.698Z,1.00
2018-06-12T13:15:35.190Z,1.00
2018-06-12T13:18:10.906Z,1.00
2018-06-12T13:20:45.510Z,1.00
2018-06-12T13:23:19.844Z,1.00
2018-06-12T13:25:54.569Z,1.00
2018-06-12T13:28:29.918Z,1.00
2018-06-12T13:31:04.591Z,1.00
2018-06-12T13:33:39.179Z,1.00
2018-06-12T13:36:14.326Z,1.00
2018-06-12T13:38:49.148Z,1.00
2018-06-12T13:41:23.477Z,1.00
2018-06-12T13:43:58.341Z,1.00
2018-06-12T13:46:32.880Z,1.00
2018-06-12T13:49:07.452Z,1.00
2018-06-12T13:51:46.205Z,1.00
2018-06-12T13:54:20.492Z,1.00
2018-06-12T13:56:54.865Z,1.00
2018-06-12T13:59:29.897Z,1.00
2018-06-12T14:02:04.373Z,1.00
2018-06-12T14:04:39.131Z,1.00
2018-06-12T14:09:48.338Z,1.00
2018-06-12T14:12:23.027Z,1.00
2018-06-12T14:14:58.340Z,1.00
2018-06-12T14:17:32.684Z,1.00
2018-06-12T14:20:07.056Z,1.00
2018-06-12T14:22:41.733Z,1.00
2018-06-12T14:25:16.676Z,1.00
2018-06-12T14:27:50.925Z,1.00
2018-06-12T14:30:30.588Z,1.00
2018-06-12T14:33:08.009Z,1.00
2018-06-12T14:35:42.838Z,1.00
2018-06-12T14:38:17.931Z,1.00
2018-06-12T14:40:52.618Z,1.00
2018-06-12T14:43:26.964Z,1.00
2018-06-12T14:46:01.425Z,1.00
2018-06-12T14:48:35.712Z,1.00
2018-06-12T14:51:10.080Z,1.00
2018-06-12T14:58:53.120Z,1.00
2018-06-12T15:01:27.548Z,1.00
2018-06-12T15:04:02.577Z,1.00
2018-06-12T15:06:36.820Z,1.00
2018-06-12T15:09:11.092Z,1.00
2018-06-12T15:14:19.443Z,1.00
2018-06-12T15:16:53.762Z,1.00
2018-06-12T15:19:28.243Z,1.00
2018-06-12T15:22:03.687Z,1.00
2018-06-12T15:24:39.301Z,1.00
2018-06-12T15:27:14.509Z,1.00
2018-06-12T15:29:49.015Z,1.00
2018-06-12T15:32:24.421Z,1.00
2018-06-12T15:34:58.894Z,1.00
2018-06-12T15:37:33.364Z,1.00
2018-06-12T15:42:49.827Z,1.00
2018-06-12T15:45:25.624Z,1.00
2018-06-12T15:48:01.715Z,1.00
2018-06-12T15:50:36.195Z,1.00
2018-06-12T15:53:12.047Z,1.00
2018-06-12T15:55:48.156Z,1.00
2018-06-12T15:58:24.652Z,1.00
2018-06-12T16:00:59.539Z,1.00
2018-06-12T16:03:36.641Z,1.00
2018-06-12T16:06:11.709Z,1.00
2018-06-12T16:08:46.245Z,1.00
2018-06-12T16:11:20.540Z,1.00
2018-06-12T16:13:55.693Z,1.00
2018-06-12T16:16:29.898Z,1.00
2018-06-12T16:19:04.089Z,1.00
2018-06-12T16:21:38.431Z,1.00
2018-06-12T16:24:14.292Z,1.00
2018-06-12T16:26:49.196Z,1.00
2018-06-12T16:29:24.139Z,1.00
2018-06-12T16:31:58.573Z,1.00
2018-06-12T16:34:32.952Z,1.00
2018-06-12T16:37:10.444Z,1.00
2018-06-12T16:39:46.933Z,1.00
2018-06-12T16:42:21.876Z,1.00
2018-06-12T16:44:57.322Z,1.00
2018-06-12T16:47:31.569Z,1.00
2018-06-12T16:50:07.592Z,1.00
2018-06-12T16:52:42.655Z,1.00
2018-06-12T16:55:17.895Z,1.00
2018-06-12T16:57:53.816Z,1.00
2018-06-12T17:00:28.074Z,1.00
2018-06-12T17:03:02.856Z,1.00
2018-06-12T17:08:11.739Z,1.00
2018-06-12T17:10:46.006Z,1.00
2018-06-12T17:13:20.293Z,1.00
2018-06-12T17:15:56.157Z,1.00
2018-06-12T17:18:30.529Z,1.00
2018-06-12T17:21:04.861Z,1.00
2018-06-12T17:23:39.397Z,1.00
2018-06-12T17:26:13.811Z,1.00
2018-06-12T17:28:48.049Z,1.00
2018-06-12T17:31:22.549Z,1.00
2018-06-12T17:33:57.384Z,1.00
2018-06-12T17:36:31.800Z,1.00
2018-06-12T17:39:07.757Z,1.00
2018-06-12T17:41:43.916Z,1.00
2018-06-12T17:44:18.441Z,1.00
2018-06-12T17:46:52.643Z,1.00
2018-06-12T17:49:26.950Z,1.00
2018-06-12T17:52:01.177Z,1.00
2018-06-12T17:54:35.634Z,1.00
2018-06-12T17:57:10.686Z,1.00
2018-06-12T17:59:45.488Z,1.00
2018-06-12T18:02:19.732Z,1.00
2018-06-12T18:04:54.100Z,1.00
2018-06-12T18:07:28.972Z,1.00
2018-06-12T18:10:03.705Z,1.00
2018-06-12T18:12:44.672Z,1.00
2018-06-12T18:15:20.101Z,1.00
2018-06-12T18:17:54.439Z,1.00
2018-06-12T18:20:28.756Z,1.00
2018-06-12T18:23:03.375Z,1.00
2018-06-12T18:25:37.647Z,1.00
2018-06-12T18:28:14.412Z,1.00
2018-06-12T18:30:51.541Z,1.00
2018-06-12T18:33:26.903Z,1.00
2018-06-12T18:36:02.740Z,1.00
2018-06-12T18:41:12.981Z,1.00
2018-06-12T18:43:49.387Z,1.00
2018-06-12T18:46:24.977Z,1.00
2018-06-12T18:48:59.469Z,1.00
2018-06-12T18:51:33.700Z,1.00
2018-06-12T18:54:09.110Z,1.00
2018-06-12T18:56:43.386Z,1.00
2018-06-12T18:59:18.573Z,1.00
2018-06-12T19:04:33.837Z,1.00
2018-06-12T19:07:08.276Z,1.00
2018-06-12T19:09:42.645Z,1.00
2018-06-12T19:12:16.916Z,1.00
2018-06-12T19:14:51.415Z,1.00
2018-06-12T19:17:25.744Z,1.00
2018-06-12T19:20:00.150Z,1.00
2018-06-12T19:22:34.488Z,1.00
2018-06-12T19:25:09.950Z,1.00
2018-06-12T19:27:44.685Z,1.00
2018-06-12T19:30:19.023Z,1.00
2018-06-12T19:32:53.228Z,1.00
2018-06-12T19:35:28.683Z,1.00
2018-06-12T19:38:03.222Z,1.00
2018-06-12T19:40:37.528Z,1.00
2018-06-12T19:45:46.219Z,1.00
2018-06-12T19:48:20.524Z,1.00
2018-06-12T19:50:54.796Z,1.00
2018-06-12T19:53:29.272Z,1.00
2018-06-12T19:56:04.186Z,1.00
2018-06-12T19:58:38.848Z,1.00
2018-06-12T20:01:13.106Z,1.00
2018-06-12T20:03:47.424Z,1.00
2018-06-12T20:06:21.928Z,1.00
2018-06-12T20:08:56.187Z,1.00
2018-06-12T20:11:30.529Z,1.00
2018-06-12T20:14:04.953Z,1.00
2018-06-12T20:16:39.156Z,1.00
2018-06-12T20:19:13.423Z,1.00
2018-06-12T20:21:47.645Z,1.00
2018-06-12T20:24:21.952Z,1.00
2018-06-12T20:26:56.199Z,1.00
2018-06-12T20:29:30.377Z,1.00
2018-06-12T20:32:04.749Z,1.00
2018-06-12T20:34:39.106Z,1.00
2018-06-12T20:37:13.323Z,1.00
2018-06-12T20:39:49.013Z,1.00
2018-06-12T20:42:23.217Z,1.00
2018-06-12T20:44:58.421Z,1.00
2018-06-12T20:47:32.739Z,1.00
2018-06-12T20:50:07.940Z,1.00
2018-06-12T20:52:42.152Z,1.00
2018-06-12T20:55:16.540Z,1.00
2018-06-12T20:57:52.651Z,1.00
2018-06-12T21:00:28.513Z,1.00
2018-06-12T21:03:02.881Z,1.00
2018-06-12T21:05:38.309Z,1.00
2018-06-12T21:08:12.658Z,1.00
2018-06-12T21:10:47.065Z,1.00
2018-06-12T21:13:21.560Z,1.00
2018-06-12T21:15:55.884Z,1.00
2018-06-12T21:18:30.188Z,1.00
2018-06-12T21:21:04.766Z,1.00
2018-06-12T21:23:45.723Z,1.00
2018-06-12T21:26:20.243Z,1.00
2018-06-12T21:28:54.528Z,1.00
2018-06-12T21:31:28.945Z,1.00
2018-06-12T21:34:03.176Z,1.00
2018-06-12T21:36:37.897Z,1.00
2018-06-12T21:39:12.545Z,1.00
2018-06-12T21:44:22.204Z,1.00
2018-06-12T21:46:56.569Z,1.00
2018-06-12T21:49:32.502Z,1.00
2018-06-12T21:52:06.689Z,1.00
2018-06-12T21:54:41.109Z,1.00
2018-06-12T21:57:15.328Z,1.00
2018-06-12T21:59:50.360Z,1.00
2018-06-12T22:02:25.314Z,1.00
2018-06-12T22:04:59.704Z,1.00
2018-06-12T22:07:34.109Z,1.00
2018-06-12T22:10:08.456Z,1.00
2018-06-12T22:12:42.881Z,1.00
2018-06-12T22:15:17.220Z,1.00
2018-06-12T22:17:52.237Z,1.00
2018-06-12T22:20:27.358Z,1.40
2018-06-12T22:23:01.716Z,1.50
2018-06-12T22:25:36.137Z,1.60
2018-06-12T22:28:10.332Z,1.90
2018-06-12T22:30:44.644Z,1.80
2018-06-12T22:33:18.969Z,1.80
2018-06-12T22:35:53.288Z,2.10
2018-06-12T22:38:27.651Z,2.50
2018-06-12T22:41:02.024Z,2.70
2018-06-12T22:43:36.537Z,2.60
2018-06-12T22:46:11.070Z,2.90
2018-06-12T22:48:45.289Z,3.10
2018-06-12T22:51:19.632Z,3.50
2018-06-12T22:53:53.901Z,3.80
2018-06-12T22:56:28.433Z,3.20
2018-06-12T22:59:02.678Z,2.90
2018-06-12T23:01:36.914Z,2.70
2018-06-12T23:04:11.292Z,2.30
2018-06-12T23:06:45.594Z,2.20
2018-06-12T23:09:19.921Z,2.30
2018-06-12T23:11:54.237Z,2.50
2018-06-12T23:21:49.288Z,2.90
2018-06-12T23:24:23.569Z,3.30
2018-06-12T23:26:57.813Z,4.60
2018-06-12T23:29:32.147Z,4.30
2018-06-12T23:32:06.364Z,4.60
2018-06-12T23:34:40.664Z,4.60
2018-06-12T23:37:14.822Z,5.00
2018-06-12T23:39:49.044Z,5.50
2018-06-12T23:42:23.350Z,5.60
2018-06-12T23:44:57.548Z,5.50
2018-06-12T23:47:31.848Z,5.40
2018-06-12T23:50:06.095Z,6.10
2018-06-12T23:52:40.440Z,6.40
2018-06-12T23:55:14.761Z,7.10
2018-06-12T23:57:49.050Z,7.70
